sensor_id;sensor_type;location;lat;lon;timestamp;P1;durP1;ratioP1;P2;durP2;ratioP2
21235;SDS011;10775;42.678;26.324;2023-09-18T00:02:19;3.03;;;2.20;;
21235;SDS011;10775;42.678;26.324;2023-09-18T00:04:45;2.00;;;1.80;;
21235;SDS011;10775;42.678;26.324;2023-09-18T00:07:10;3.75;;;1.95;;
21235;SDS011;10775;42.678;26.324;2023-09-18T00:09:36;3.95;;;2.20;;
21235;SDS011;10775;42.678;26.324;2023-09-18T00:12:01;2.65;;;1.90;;
21235;SDS011;10775;42.678;26.324;2023-09-18T00:14:27;2.63;;;1.88;;
21235;SDS011;10775;42.678;26.324;2023-09-18T00:16:52;3.50;;;1.77;;
21235;SDS011;10775;42.678;26.324;2023-09-18T00:19:18;3.50;;;2.30;;
21235;SDS011;10775;42.678;26.324;2023-09-18T00:21:43;2.20;;;2.00;;
21235;SDS011;10775;42.678;26.324;2023-09-18T00:24:09;7.22;;;2.00;;
21235;SDS011;10775;42.678;26.324;2023-09-18T00:26:36;3.17;;;1.98;;
21235;SDS011;10775;42.678;26.324;2023-09-18T00:29:02;3.58;;;2.50;;
21235;SDS011;10775;42.678;26.324;2023-09-18T00:31:27;3.35;;;1.85;;
21235;SDS011;10775;42.678;26.324;2023-09-18T00:33:53;2.38;;;1.85;;
21235;SDS011;10775;42.678;26.324;2023-09-18T00:36:18;4.28;;;2.53;;
21235;SDS011;10775;42.678;26.324;2023-09-18T00:38:44;2.10;;;1.83;;
21235;SDS011;10775;42.678;26.324;2023-09-18T00:41:09;3.22;;;1.92;;
21235;SDS011;10775;42.678;26.324;2023-09-18T00:43:34;5.22;;;1.92;;
21235;SDS011;10775;42.678;26.324;2023-09-18T00:46:00;3.20;;;2.20;;
21235;SDS011;10775;42.678;26.324;2023-09-18T00:48:26;2.78;;;2.00;;
21235;SDS011;10775;42.678;26.324;2023-09-18T00:50:53;3.13;;;1.73;;
21235;SDS011;10775;42.678;26.324;2023-09-18T00:53:20;2.78;;;1.70;;
21235;SDS011;10775;42.678;26.324;2023-09-18T00:55:48;4.05;;;2.00;;
21235;SDS011;10775;42.678;26.324;2023-09-18T00:58:18;3.03;;;2.28;;
21235;SDS011;10775;42.678;26.324;2023-09-18T01:00:44;2.40;;;2.00;;
21235;SDS011;10775;42.678;26.324;2023-09-18T01:03:10;2.67;;;2.00;;
21235;SDS011;10775;42.678;26.324;2023-09-18T01:05:36;4.47;;;2.28;;
21235;SDS011;10775;42.678;26.324;2023-09-18T01:08:01;2.67;;;1.98;;
21235;SDS011;10775;42.678;26.324;2023-09-18T01:10:34;3.50;;;2.13;;
21235;SDS011;10775;42.678;26.324;2023-09-18T01:13:10;3.08;;;1.77;;
21235;SDS011;10775;42.678;26.324;2023-09-18T01:15:48;4.13;;;2.08;;
21235;SDS011;10775;42.678;26.324;2023-09-18T01:18:19;2.72;;;2.08;;
21235;SDS011;10775;42.678;26.324;2023-09-18T01:20:44;3.63;;;1.88;;
21235;SDS011;10775;42.678;26.324;2023-09-18T01:23:10;2.88;;;2.30;;
21235;SDS011;10775;42.678;26.324;2023-09-18T01:25:36;2.65;;;1.80;;
21235;SDS011;10775;42.678;26.324;2023-09-18T01:28:02;1.95;;;1.67;;
21235;SDS011;10775;42.678;26.324;2023-09-18T01:30:28;1.92;;;1.50;;
21235;SDS011;10775;42.678;26.324;2023-09-18T01:32:55;3.03;;;2.03;;
21235;SDS011;10775;42.678;26.324;2023-09-18T01:35:23;5.35;;;2.20;;
21235;SDS011;10775;42.678;26.324;2023-09-18T01:37:55;3.08;;;1.95;;
21235;SDS011;10775;42.678;26.324;2023-09-18T01:40:22;2.25;;;2.05;;
21235;SDS011;10775;42.678;26.324;2023-09-18T01:42:49;5.10;;;1.80;;
21235;SDS011;10775;42.678;26.324;2023-09-18T01:45:15;3.05;;;2.13;;
21235;SDS011;10775;42.678;26.324;2023-09-18T01:47:40;2.58;;;1.73;;
21235;SDS011;10775;42.678;26.324;2023-09-18T01:50:06;3.28;;;2.00;;
21235;SDS011;10775;42.678;26.324;2023-09-18T01:52:31;2.92;;;2.00;;
21235;SDS011;10775;42.678;26.324;2023-09-18T01:54:57;3.08;;;1.80;;
21235;SDS011;10775;42.678;26.324;2023-09-18T01:57:23;3.08;;;1.90;;
21235;SDS011;10775;42.678;26.324;2023-09-18T01:59:48;3.10;;;1.95;;
21235;SDS011;10775;42.678;26.324;2023-09-18T02:02:14;3.08;;;1.92;;
21235;SDS011;10775;42.678;26.324;2023-09-18T02:04:39;2.30;;;1.80;;
21235;SDS011;10775;42.678;26.324;2023-09-18T02:07:05;3.08;;;2.08;;
21235;SDS011;10775;42.678;26.324;2023-09-18T02:09:31;2.00;;;1.73;;
21235;SDS011;10775;42.678;26.324;2023-09-18T02:11:56;2.40;;;1.92;;
21235;SDS011;10775;42.678;26.324;2023-09-18T02:14:22;4.30;;;2.00;;
21235;SDS011;10775;42.678;26.324;2023-09-18T02:16:47;2.92;;;2.00;;
21235;SDS011;10775;42.678;26.324;2023-09-18T02:19:14;2.25;;;1.80;;
21235;SDS011;10775;42.678;26.324;2023-09-18T02:21:39;2.42;;;1.80;;
21235;SDS011;10775;42.678;26.324;2023-09-18T02:24:05;2.20;;;2.00;;
21235;SDS011;10775;42.678;26.324;2023-09-18T02:26:31;2.50;;;1.75;;
21235;SDS011;10775;42.678;26.324;2023-09-18T02:29:00;2.15;;;1.90;;
21235;SDS011;10775;42.678;26.324;2023-09-18T02:31:29;4.05;;;2.03;;
21235;SDS011;10775;42.678;26.324;2023-09-18T02:33:55;1.90;;;1.63;;
21235;SDS011;10775;42.678;26.324;2023-09-18T02:36:21;2.45;;;1.90;;
21235;SDS011;10775;42.678;26.324;2023-09-18T02:38:46;3.70;;;1.88;;
21235;SDS011;10775;42.678;26.324;2023-09-18T02:41:12;3.38;;;1.98;;
21235;SDS011;10775;42.678;26.324;2023-09-18T02:43:37;2.70;;;2.05;;
21235;SDS011;10775;42.678;26.324;2023-09-18T02:46:03;2.50;;;1.95;;
21235;SDS011;10775;42.678;26.324;2023-09-18T02:48:30;3.65;;;1.83;;
21235;SDS011;10775;42.678;26.324;2023-09-18T02:50:56;3.47;;;1.83;;
21235;SDS011;10775;42.678;26.324;2023-09-18T02:53:22;3.47;;;1.75;;
21235;SDS011;10775;42.678;26.324;2023-09-18T02:55:50;1.90;;;1.70;;
21235;SDS011;10775;42.678;26.324;2023-09-18T02:58:17;2.83;;;2.08;;
21235;SDS011;10775;42.678;26.324;2023-09-18T03:00:44;4.30;;;1.90;;
21235;SDS011;10775;42.678;26.324;2023-09-18T03:03:10;4.50;;;1.92;;
21235;SDS011;10775;42.678;26.324;2023-09-18T03:05:37;5.13;;;2.45;;
21235;SDS011;10775;42.678;26.324;2023-09-18T03:08:03;2.22;;;1.90;;
21235;SDS011;10775;42.678;26.324;2023-09-18T03:10:49;2.65;;;2.00;;
21235;SDS011;10775;42.678;26.324;2023-09-18T03:13:14;3.10;;;2.00;;
21235;SDS011;10775;42.678;26.324;2023-09-18T03:15:41;3.53;;;2.20;;
21235;SDS011;10775;42.678;26.324;2023-09-18T03:18:11;1.92;;;1.73;;
21235;SDS011;10775;42.678;26.324;2023-09-18T03:20:36;2.30;;;1.95;;
21235;SDS011;10775;42.678;26.324;2023-09-18T03:23:02;3.47;;;2.10;;
21235;SDS011;10775;42.678;26.324;2023-09-18T03:25:27;2.80;;;1.80;;
21235;SDS011;10775;42.678;26.324;2023-09-18T03:27:54;2.60;;;1.92;;
21235;SDS011;10775;42.678;26.324;2023-09-18T03:30:21;3.08;;;1.70;;
21235;SDS011;10775;42.678;26.324;2023-09-18T03:32:51;2.90;;;1.70;;
21235;SDS011;10775;42.678;26.324;2023-09-18T03:35:17;3.53;;;1.92;;
21235;SDS011;10775;42.678;26.324;2023-09-18T03:37:44;5.78;;;1.98;;
21235;SDS011;10775;42.678;26.324;2023-09-18T03:40:13;2.70;;;2.05;;
21235;SDS011;10775;42.678;26.324;2023-09-18T03:42:39;3.30;;;2.15;;
21235;SDS011;10775;42.678;26.324;2023-09-18T03:45:05;2.70;;;1.90;;
21235;SDS011;10775;42.678;26.324;2023-09-18T03:47:31;2.13;;;1.83;;
21235;SDS011;10775;42.678;26.324;2023-09-18T03:49:57;1.92;;;1.70;;
21235;SDS011;10775;42.678;26.324;2023-09-18T03:52:22;2.75;;;2.10;;
21235;SDS011;10775;42.678;26.324;2023-09-18T03:54:48;2.78;;;2.17;;
21235;SDS011;10775;42.678;26.324;2023-09-18T03:57:14;2.45;;;1.80;;
21235;SDS011;10775;42.678;26.324;2023-09-18T03:59:40;2.78;;;1.85;;
21235;SDS011;10775;42.678;26.324;2023-09-18T04:02:05;3.03;;;1.90;;
21235;SDS011;10775;42.678;26.324;2023-09-18T04:04:31;3.50;;;1.90;;
21235;SDS011;10775;42.678;26.324;2023-09-18T04:06:57;2.22;;;1.98;;
21235;SDS011;10775;42.678;26.324;2023-09-18T04:09:23;2.25;;;1.90;;
21235;SDS011;10775;42.678;26.324;2023-09-18T04:11:48;3.67;;;2.20;;
21235;SDS011;10775;42.678;26.324;2023-09-18T04:14:14;3.40;;;2.20;;
21235;SDS011;10775;42.678;26.324;2023-09-18T04:16:39;2.55;;;1.83;;
21235;SDS011;10775;42.678;26.324;2023-09-18T04:19:07;2.92;;;2.35;;
21235;SDS011;10775;42.678;26.324;2023-09-18T04:21:32;3.20;;;2.38;;
21235;SDS011;10775;42.678;26.324;2023-09-18T04:23:58;4.57;;;2.15;;
21235;SDS011;10775;42.678;26.324;2023-09-18T04:26:24;3.55;;;2.30;;
21235;SDS011;10775;42.678;26.324;2023-09-18T04:28:54;3.03;;;2.13;;
21235;SDS011;10775;42.678;26.324;2023-09-18T04:31:20;2.10;;;1.80;;
21235;SDS011;10775;42.678;26.324;2023-09-18T04:33:45;2.63;;;1.70;;
21235;SDS011;10775;42.678;26.324;2023-09-18T04:36:10;2.47;;;1.92;;
21235;SDS011;10775;42.678;26.324;2023-09-18T04:38:36;4.75;;;2.15;;
21235;SDS011;10775;42.678;26.324;2023-09-18T04:41:02;2.03;;;1.70;;
21235;SDS011;10775;42.678;26.324;2023-09-18T04:43:27;2.97;;;1.90;;
21235;SDS011;10775;42.678;26.324;2023-09-18T04:45:54;3.38;;;2.00;;
21235;SDS011;10775;42.678;26.324;2023-09-18T04:48:20;3.67;;;2.03;;
21235;SDS011;10775;42.678;26.324;2023-09-18T04:50:46;2.38;;;2.08;;
21235;SDS011;10775;42.678;26.324;2023-09-18T04:53:12;4.35;;;2.20;;
21235;SDS011;10775;42.678;26.324;2023-09-18T04:55:38;3.55;;;1.90;;
21235;SDS011;10775;42.678;26.324;2023-09-18T04:58:03;3.00;;;1.80;;
21235;SDS011;10775;42.678;26.324;2023-09-18T05:00:29;2.50;;;2.05;;
21235;SDS011;10775;42.678;26.324;2023-09-18T05:02:56;2.83;;;2.00;;
21235;SDS011;10775;42.678;26.324;2023-09-18T05:05:25;9.23;;;2.97;;
21235;SDS011;10775;42.678;26.324;2023-09-18T05:07:51;3.33;;;2.20;;
21235;SDS011;10775;42.678;26.324;2023-09-18T05:10:16;3.80;;;2.25;;
21235;SDS011;10775;42.678;26.324;2023-09-18T05:12:42;2.65;;;2.15;;
21235;SDS011;10775;42.678;26.324;2023-09-18T05:15:08;5.18;;;2.08;;
21235;SDS011;10775;42.678;26.324;2023-09-18T05:17:41;3.58;;;2.35;;
21235;SDS011;10775;42.678;26.324;2023-09-18T05:20:07;2.60;;;2.40;;
21235;SDS011;10775;42.678;26.324;2023-09-18T05:22:36;4.00;;;1.97;;
21235;SDS011;10775;42.678;26.324;2023-09-18T05:25:02;4.20;;;2.60;;
21235;SDS011;10775;42.678;26.324;2023-09-18T05:27:29;2.92;;;2.28;;
21235;SDS011;10775;42.678;26.324;2023-09-18T05:29:54;5.40;;;2.40;;
21235;SDS011;10775;42.678;26.324;2023-09-18T05:32:20;5.75;;;2.83;;
21235;SDS011;10775;42.678;26.324;2023-09-18T05:34:45;3.63;;;2.40;;
21235;SDS011;10775;42.678;26.324;2023-09-18T05:37:11;5.40;;;3.42;;
21235;SDS011;10775;42.678;26.324;2023-09-18T05:39:36;4.20;;;2.30;;
21235;SDS011;10775;42.678;26.324;2023-09-18T05:42:01;6.40;;;2.80;;
21235;SDS011;10775;42.678;26.324;2023-09-18T05:44:27;3.95;;;2.63;;
21235;SDS011;10775;42.678;26.324;2023-09-18T05:46:53;6.50;;;2.67;;
21235;SDS011;10775;42.678;26.324;2023-09-18T05:49:18;5.88;;;3.03;;
21235;SDS011;10775;42.678;26.324;2023-09-18T05:51:43;4.95;;;3.33;;
21235;SDS011;10775;42.678;26.324;2023-09-18T05:54:09;3.50;;;2.83;;
21235;SDS011;10775;42.678;26.324;2023-09-18T05:56:34;4.00;;;2.72;;
21235;SDS011;10775;42.678;26.324;2023-09-18T05:59:00;3.25;;;2.50;;
21235;SDS011;10775;42.678;26.324;2023-09-18T06:01:25;8.00;;;3.10;;
21235;SDS011;10775;42.678;26.324;2023-09-18T06:03:51;4.68;;;3.25;;
21235;SDS011;10775;42.678;26.324;2023-09-18T06:06:16;3.55;;;2.30;;
21235;SDS011;10775;42.678;26.324;2023-09-18T06:08:41;6.85;;;2.88;;
21235;SDS011;10775;42.678;26.324;2023-09-18T06:11:07;6.72;;;3.00;;
21235;SDS011;10775;42.678;26.324;2023-09-18T06:13:32;4.45;;;3.13;;
21235;SDS011;10775;42.678;26.324;2023-09-18T06:15:59;4.53;;;2.90;;
21235;SDS011;10775;42.678;26.324;2023-09-18T06:18:30;6.00;;;2.92;;
21235;SDS011;10775;42.678;26.324;2023-09-18T06:20:56;6.20;;;3.15;;
21235;SDS011;10775;42.678;26.324;2023-09-18T06:23:21;5.43;;;2.78;;
21235;SDS011;10775;42.678;26.324;2023-09-18T06:25:46;4.47;;;2.95;;
21235;SDS011;10775;42.678;26.324;2023-09-18T06:28:12;6.55;;;3.28;;
21235;SDS011;10775;42.678;26.324;2023-09-18T06:30:37;7.32;;;3.63;;
21235;SDS011;10775;42.678;26.324;2023-09-18T06:33:03;4.20;;;3.45;;
21235;SDS011;10775;42.678;26.324;2023-09-18T06:35:29;5.13;;;3.22;;
21235;SDS011;10775;42.678;26.324;2023-09-18T06:37:54;7.55;;;3.95;;
21235;SDS011;10775;42.678;26.324;2023-09-18T06:40:23;4.82;;;3.75;;
21235;SDS011;10775;42.678;26.324;2023-09-18T06:42:50;5.55;;;4.45;;
21235;SDS011;10775;42.678;26.324;2023-09-18T06:45:16;6.88;;;4.18;;
21235;SDS011;10775;42.678;26.324;2023-09-18T06:47:42;7.95;;;5.97;;
21235;SDS011;10775;42.678;26.324;2023-09-18T06:50:07;8.02;;;4.95;;
21235;SDS011;10775;42.678;26.324;2023-09-18T06:52:34;10.10;;;4.22;;
21235;SDS011;10775;42.678;26.324;2023-09-18T06:54:59;4.93;;;2.92;;
21235;SDS011;10775;42.678;26.324;2023-09-18T06:57:25;5.32;;;3.75;;
21235;SDS011;10775;42.678;26.324;2023-09-18T06:59:51;7.22;;;3.50;;
21235;SDS011;10775;42.678;26.324;2023-09-18T07:02:16;4.75;;;3.60;;
21235;SDS011;10775;42.678;26.324;2023-09-18T07:04:42;7.75;;;3.70;;
21235;SDS011;10775;42.678;26.324;2023-09-18T07:07:13;6.30;;;3.85;;
21235;SDS011;10775;42.678;26.324;2023-09-18T07:09:42;6.13;;;3.70;;
21235;SDS011;10775;42.678;26.324;2023-09-18T07:12:08;6.87;;;3.57;;
21235;SDS011;10775;42.678;26.324;2023-09-18T07:14:34;17.08;;;5.10;;
21235;SDS011;10775;42.678;26.324;2023-09-18T07:17:00;7.68;;;3.55;;
21235;SDS011;10775;42.678;26.324;2023-09-18T07:19:27;7.40;;;4.50;;
21235;SDS011;10775;42.678;26.324;2023-09-18T07:21:52;12.85;;;6.70;;
21235;SDS011;10775;42.678;26.324;2023-09-18T07:24:18;6.03;;;3.75;;
21235;SDS011;10775;42.678;26.324;2023-09-18T07:26:45;8.07;;;4.22;;
21235;SDS011;10775;42.678;26.324;2023-09-18T07:29:12;5.78;;;4.07;;
21235;SDS011;10775;42.678;26.324;2023-09-18T07:31:42;7.05;;;5.18;;
21235;SDS011;10775;42.678;26.324;2023-09-18T07:34:08;6.53;;;4.63;;
21235;SDS011;10775;42.678;26.324;2023-09-18T07:36:34;7.43;;;4.40;;
21235;SDS011;10775;42.678;26.324;2023-09-18T07:39:00;7.55;;;4.82;;
21235;SDS011;10775;42.678;26.324;2023-09-18T07:41:25;11.20;;;5.60;;
21235;SDS011;10775;42.678;26.324;2023-09-18T07:43:51;11.88;;;6.60;;
21235;SDS011;10775;42.678;26.324;2023-09-18T07:46:16;11.10;;;4.63;;
21235;SDS011;10775;42.678;26.324;2023-09-18T07:48:42;10.80;;;5.03;;
21235;SDS011;10775;42.678;26.324;2023-09-18T07:51:11;11.52;;;6.03;;
21235;SDS011;10775;42.678;26.324;2023-09-18T07:53:37;8.65;;;4.93;;
21235;SDS011;10775;42.678;26.324;2023-09-18T07:56:02;18.95;;;9.70;;
21235;SDS011;10775;42.678;26.324;2023-09-18T07:58:30;11.68;;;6.05;;
21235;SDS011;10775;42.678;26.324;2023-09-18T08:00:56;8.27;;;5.05;;
21235;SDS011;10775;42.678;26.324;2023-09-18T08:03:23;8.70;;;5.20;;
21235;SDS011;10775;42.678;26.324;2023-09-18T08:05:50;5.97;;;4.72;;
21235;SDS011;10775;42.678;26.324;2023-09-18T08:08:17;8.43;;;4.70;;
21235;SDS011;10775;42.678;26.324;2023-09-18T08:10:45;5.97;;;4.78;;
21235;SDS011;10775;42.678;26.324;2023-09-18T08:13:11;6.55;;;5.32;;
21235;SDS011;10775;42.678;26.324;2023-09-18T08:15:36;7.38;;;5.32;;
21235;SDS011;10775;42.678;26.324;2023-09-18T08:18:02;9.35;;;4.82;;
21235;SDS011;10775;42.678;26.324;2023-09-18T08:20:28;8.50;;;5.95;;
21235;SDS011;10775;42.678;26.324;2023-09-18T08:22:54;7.65;;;4.72;;
21235;SDS011;10775;42.678;26.324;2023-09-18T08:25:19;6.15;;;4.68;;
21235;SDS011;10775;42.678;26.324;2023-09-18T08:27:45;9.00;;;5.18;;
21235;SDS011;10775;42.678;26.324;2023-09-18T08:30:11;8.70;;;5.45;;
21235;SDS011;10775;42.678;26.324;2023-09-18T08:32:38;11.98;;;6.03;;
21235;SDS011;10775;42.678;26.324;2023-09-18T08:35:04;8.50;;;5.30;;
21235;SDS011;10775;42.678;26.324;2023-09-18T08:37:30;7.25;;;4.78;;
21235;SDS011;10775;42.678;26.324;2023-09-18T08:39:56;5.25;;;4.70;;
21235;SDS011;10775;42.678;26.324;2023-09-18T08:42:22;8.90;;;6.18;;
21235;SDS011;10775;42.678;26.324;2023-09-18T08:44:48;8.10;;;4.78;;
21235;SDS011;10775;42.678;26.324;2023-09-18T08:47:16;8.30;;;5.40;;
21235;SDS011;10775;42.678;26.324;2023-09-18T08:49:43;9.82;;;5.80;;
21235;SDS011;10775;42.678;26.324;2023-09-18T08:52:13;6.15;;;4.72;;
21235;SDS011;10775;42.678;26.324;2023-09-18T08:54:40;5.13;;;4.32;;
21235;SDS011;10775;42.678;26.324;2023-09-18T08:57:05;7.13;;;4.30;;
21235;SDS011;10775;42.678;26.324;2023-09-18T08:59:33;5.68;;;3.88;;
21235;SDS011;10775;42.678;26.324;2023-09-18T09:02:01;7.60;;;4.53;;
21235;SDS011;10775;42.678;26.324;2023-09-18T09:04:27;8.25;;;5.18;;
21235;SDS011;10775;42.678;26.324;2023-09-18T09:06:52;5.32;;;4.20;;
21235;SDS011;10775;42.678;26.324;2023-09-18T09:09:18;10.57;;;4.10;;
21235;SDS011;10775;42.678;26.324;2023-09-18T09:11:50;6.85;;;4.50;;
21235;SDS011;10775;42.678;26.324;2023-09-18T09:14:16;9.07;;;4.45;;
21235;SDS011;10775;42.678;26.324;2023-09-18T09:16:50;4.43;;;3.50;;
21235;SDS011;10775;42.678;26.324;2023-09-18T09:19:17;4.40;;;3.65;;
21235;SDS011;10775;42.678;26.324;2023-09-18T09:21:43;6.90;;;4.13;;
21235;SDS011;10775;42.678;26.324;2023-09-18T09:24:10;7.78;;;5.88;;
21235;SDS011;10775;42.678;26.324;2023-09-18T09:26:39;4.97;;;4.00;;
21235;SDS011;10775;42.678;26.324;2023-09-18T09:29:18;6.65;;;4.00;;
21235;SDS011;10775;42.678;26.324;2023-09-18T09:31:46;4.57;;;3.60;;
21235;SDS011;10775;42.678;26.324;2023-09-18T09:34:12;8.07;;;4.22;;
21235;SDS011;10775;42.678;26.324;2023-09-18T09:36:55;4.78;;;3.67;;
21235;SDS011;10775;42.678;26.324;2023-09-18T09:39:21;5.75;;;3.83;;
21235;SDS011;10775;42.678;26.324;2023-09-18T09:41:50;4.03;;;3.63;;
21235;SDS011;10775;42.678;26.324;2023-09-18T09:44:16;4.38;;;3.80;;
21235;SDS011;10775;42.678;26.324;2023-09-18T09:46:48;5.90;;;3.70;;
21235;SDS011;10775;42.678;26.324;2023-09-18T09:49:16;4.70;;;3.63;;
21235;SDS011;10775;42.678;26.324;2023-09-18T09:51:44;5.35;;;3.20;;
21235;SDS011;10775;42.678;26.324;2023-09-18T09:54:10;4.07;;;3.30;;
21235;SDS011;10775;42.678;26.324;2023-09-18T09:56:41;9.30;;;3.70;;
21235;SDS011;10775;42.678;26.324;2023-09-18T09:59:08;4.43;;;3.58;;
21235;SDS011;10775;42.678;26.324;2023-09-18T10:01:34;5.45;;;4.20;;
21235;SDS011;10775;42.678;26.324;2023-09-18T10:04:04;7.35;;;3.97;;
21235;SDS011;10775;42.678;26.324;2023-09-18T10:06:34;4.40;;;3.58;;
21235;SDS011;10775;42.678;26.324;2023-09-18T10:09:04;4.60;;;3.40;;
21235;SDS011;10775;42.678;26.324;2023-09-18T10:11:33;4.93;;;3.83;;
21235;SDS011;10775;42.678;26.324;2023-09-18T10:16:49;7.32;;;5.10;;
21235;SDS011;10775;42.678;26.324;2023-09-18T10:19:27;5.18;;;3.75;;
21235;SDS011;10775;42.678;26.324;2023-09-18T10:24:59;5.18;;;3.90;;
21235;SDS011;10775;42.678;26.324;2023-09-18T10:27:30;9.02;;;5.70;;
21235;SDS011;10775;42.678;26.324;2023-09-18T10:29:58;5.07;;;3.60;;
21235;SDS011;10775;42.678;26.324;2023-09-18T10:32:29;5.22;;;4.03;;
21235;SDS011;10775;42.678;26.324;2023-09-18T10:34:55;4.68;;;3.95;;
21235;SDS011;10775;42.678;26.324;2023-09-18T10:37:21;9.68;;;4.22;;
21235;SDS011;10775;42.678;26.324;2023-09-18T10:39:48;5.20;;;4.32;;
21235;SDS011;10775;42.678;26.324;2023-09-18T10:42:14;8.65;;;4.10;;
21235;SDS011;10775;42.678;26.324;2023-09-18T10:44:42;5.88;;;4.07;;
21235;SDS011;10775;42.678;26.324;2023-09-18T10:47:09;9.98;;;4.63;;
21235;SDS011;10775;42.678;26.324;2023-09-18T10:49:36;6.97;;;4.38;;
21235;SDS011;10775;42.678;26.324;2023-09-18T10:52:02;7.45;;;4.25;;
21235;SDS011;10775;42.678;26.324;2023-09-18T10:54:29;7.50;;;4.45;;
21235;SDS011;10775;42.678;26.324;2023-09-18T10:56:56;6.95;;;4.88;;
21235;SDS011;10775;42.678;26.324;2023-09-18T10:59:22;6.60;;;4.13;;
21235;SDS011;10775;42.678;26.324;2023-09-18T11:01:48;5.90;;;4.70;;
21235;SDS011;10775;42.678;26.324;2023-09-18T11:04:17;6.32;;;4.55;;
21235;SDS011;10775;42.678;26.324;2023-09-18T11:09:28;5.88;;;4.38;;
21235;SDS011;10775;42.678;26.324;2023-09-18T11:14:40;5.32;;;4.30;;
21235;SDS011;10775;42.678;26.324;2023-09-18T11:17:06;6.32;;;4.38;;
21235;SDS011;10775;42.678;26.324;2023-09-18T11:20:38;6.15;;;4.32;;
21235;SDS011;10775;42.678;26.324;2023-09-18T11:22:49;6.07;;;4.22;;
21235;SDS011;10775;42.678;26.324;2023-09-18T11:28:02;6.30;;;3.70;;
21235;SDS011;10775;42.678;26.324;2023-09-18T11:30:31;9.50;;;5.85;;
21235;SDS011;10775;42.678;26.324;2023-09-18T11:33:00;8.27;;;6.13;;
21235;SDS011;10775;42.678;26.324;2023-09-18T11:35:28;5.72;;;4.47;;
21235;SDS011;10775;42.678;26.324;2023-09-18T11:38:03;5.25;;;4.65;;
21235;SDS011;10775;42.678;26.324;2023-09-18T11:40:34;6.38;;;4.43;;
21235;SDS011;10775;42.678;26.324;2023-09-18T11:45:56;5.78;;;4.70;;
21235;SDS011;10775;42.678;26.324;2023-09-18T11:48:24;5.85;;;4.22;;
21235;SDS011;10775;42.678;26.324;2023-09-18T11:50:53;6.67;;;4.67;;
21235;SDS011;10775;42.678;26.324;2023-09-18T11:53:19;8.45;;;5.18;;
21235;SDS011;10775;42.678;26.324;2023-09-18T11:55:46;6.45;;;4.57;;
21235;SDS011;10775;42.678;26.324;2023-09-18T11:58:12;5.15;;;4.05;;
21235;SDS011;10775;42.678;26.324;2023-09-18T12:00:38;4.40;;;3.72;;
21235;SDS011;10775;42.678;26.324;2023-09-18T12:03:16;4.72;;;4.10;;
21235;SDS011;10775;42.678;26.324;2023-09-18T12:06:00;5.85;;;4.03;;
21235;SDS011;10775;42.678;26.324;2023-09-18T12:08:30;5.53;;;4.82;;
21235;SDS011;10775;42.678;26.324;2023-09-18T12:10:56;5.60;;;3.38;;
21235;SDS011;10775;42.678;26.324;2023-09-18T12:13:24;6.13;;;4.40;;
21235;SDS011;10775;42.678;26.324;2023-09-18T12:15:55;8.23;;;4.17;;
21235;SDS011;10775;42.678;26.324;2023-09-18T12:18:22;5.65;;;4.30;;
21235;SDS011;10775;42.678;26.324;2023-09-18T12:20:50;7.38;;;4.57;;
21235;SDS011;10775;42.678;26.324;2023-09-18T12:23:16;11.75;;;4.25;;
21235;SDS011;10775;42.678;26.324;2023-09-18T12:25:46;6.10;;;4.10;;
21235;SDS011;10775;42.678;26.324;2023-09-18T12:28:15;5.07;;;4.20;;
21235;SDS011;10775;42.678;26.324;2023-09-18T12:30:41;7.10;;;4.68;;
21235;SDS011;10775;42.678;26.324;2023-09-18T12:33:08;3.50;;;3.00;;
21235;SDS011;10775;42.678;26.324;2023-09-18T12:35:34;5.93;;;4.18;;
21235;SDS011;10775;42.678;26.324;2023-09-18T12:38:00;8.52;;;4.57;;
21235;SDS011;10775;42.678;26.324;2023-09-18T12:40:27;9.75;;;5.05;;
21235;SDS011;10775;42.678;26.324;2023-09-18T12:42:54;7.00;;;4.38;;
21235;SDS011;10775;42.678;26.324;2023-09-18T12:45:21;8.13;;;4.97;;
21235;SDS011;10775;42.678;26.324;2023-09-18T12:47:48;9.63;;;5.47;;
21235;SDS011;10775;42.678;26.324;2023-09-18T12:50:14;6.32;;;4.85;;
21235;SDS011;10775;42.678;26.324;2023-09-18T12:52:40;6.07;;;4.63;;
21235;SDS011;10775;42.678;26.324;2023-09-18T12:55:06;6.53;;;4.38;;
21235;SDS011;10775;42.678;26.324;2023-09-18T12:57:32;6.43;;;5.20;;
21235;SDS011;10775;42.678;26.324;2023-09-18T12:59:58;6.68;;;5.07;;
21235;SDS011;10775;42.678;26.324;2023-09-18T13:02:24;5.00;;;4.10;;
21235;SDS011;10775;42.678;26.324;2023-09-18T13:04:56;7.68;;;5.07;;
21235;SDS011;10775;42.678;26.324;2023-09-18T13:07:22;4.28;;;3.22;;
21235;SDS011;10775;42.678;26.324;2023-09-18T13:10:02;5.50;;;4.30;;
21235;SDS011;10775;42.678;26.324;2023-09-18T13:12:40;6.15;;;4.72;;
21235;SDS011;10775;42.678;26.324;2023-09-18T13:15:06;9.80;;;6.05;;
21235;SDS011;10775;42.678;26.324;2023-09-18T13:17:42;7.75;;;5.55;;
21235;SDS011;10775;42.678;26.324;2023-09-18T13:20:20;6.85;;;4.13;;
21235;SDS011;10775;42.678;26.324;2023-09-18T13:22:53;6.88;;;4.43;;
21235;SDS011;10775;42.678;26.324;2023-09-18T13:25:20;5.70;;;4.38;;
21235;SDS011;10775;42.678;26.324;2023-09-18T13:27:47;8.48;;;6.30;;
21235;SDS011;10775;42.678;26.324;2023-09-18T13:30:13;4.78;;;3.50;;
21235;SDS011;10775;42.678;26.324;2023-09-18T13:32:42;4.50;;;3.65;;
21235;SDS011;10775;42.678;26.324;2023-09-18T13:35:09;5.80;;;3.88;;
21235;SDS011;10775;42.678;26.324;2023-09-18T13:37:36;5.90;;;4.28;;
21235;SDS011;10775;42.678;26.324;2023-09-18T13:40:04;4.20;;;3.28;;
21235;SDS011;10775;42.678;26.324;2023-09-18T13:42:32;5.80;;;3.97;;
21235;SDS011;10775;42.678;26.324;2023-09-18T13:44:58;5.03;;;4.03;;
21235;SDS011;10775;42.678;26.324;2023-09-18T13:47:27;4.50;;;3.63;;
21235;SDS011;10775;42.678;26.324;2023-09-18T13:49:53;6.85;;;4.20;;
21235;SDS011;10775;42.678;26.324;2023-09-18T13:52:22;6.88;;;4.30;;
21235;SDS011;10775;42.678;26.324;2023-09-18T13:54:49;5.28;;;4.00;;
21235;SDS011;10775;42.678;26.324;2023-09-18T13:57:17;5.68;;;4.63;;
21235;SDS011;10775;42.678;26.324;2023-09-18T13:59:46;5.88;;;4.05;;
21235;SDS011;10775;42.678;26.324;2023-09-18T14:02:13;5.35;;;4.18;;
21235;SDS011;10775;42.678;26.324;2023-09-18T14:04:40;4.95;;;4.40;;
21235;SDS011;10775;42.678;26.324;2023-09-18T14:07:06;5.15;;;4.15;;
21235;SDS011;10775;42.678;26.324;2023-09-18T14:09:32;8.60;;;4.00;;
21235;SDS011;10775;42.678;26.324;2023-09-18T14:11:57;7.40;;;4.05;;
21235;SDS011;10775;42.678;26.324;2023-09-18T14:14:23;7.18;;;4.30;;
21235;SDS011;10775;42.678;26.324;2023-09-18T14:16:49;4.90;;;4.03;;
21235;SDS011;10775;42.678;26.324;2023-09-18T14:19:18;8.13;;;3.90;;
21235;SDS011;10775;42.678;26.324;2023-09-18T14:21:44;6.47;;;3.78;;
21235;SDS011;10775;42.678;26.324;2023-09-18T14:24:10;6.28;;;3.75;;
21235;SDS011;10775;42.678;26.324;2023-09-18T14:26:36;4.68;;;4.00;;
21235;SDS011;10775;42.678;26.324;2023-09-18T14:29:09;6.18;;;3.92;;
21235;SDS011;10775;42.678;26.324;2023-09-18T14:31:39;4.75;;;3.83;;
21235;SDS011;10775;42.678;26.324;2023-09-18T14:34:04;5.35;;;3.67;;
21235;SDS011;10775;42.678;26.324;2023-09-18T14:36:36;5.30;;;3.83;;
21235;SDS011;10775;42.678;26.324;2023-09-18T14:39:02;6.05;;;3.80;;
21235;SDS011;10775;42.678;26.324;2023-09-18T14:41:28;4.40;;;3.42;;
21235;SDS011;10775;42.678;26.324;2023-09-18T14:43:54;6.25;;;3.83;;
21235;SDS011;10775;42.678;26.324;2023-09-18T14:46:22;7.93;;;3.55;;
21235;SDS011;10775;42.678;26.324;2023-09-18T14:48:47;4.50;;;3.45;;
21235;SDS011;10775;42.678;26.324;2023-09-18T14:51:13;3.88;;;3.53;;